This is the latest recevied weather packets stored in our database for station/object N3UJJ-1. If no packets are shown the sender has not sent any weather packets the latest 1 day(s).
| Time | Temp. | Humidity | Pressure | Rain* | Wind** | Luminosity | Snow |
|---|---|---|---|---|---|---|---|
| 1778080576 | 16.67° C | 94% | 1009.8 hPa | 1.27 mm | - | - | - |
| 1778078776 | 16.11° C | 93% | 1010 hPa | 1.27 mm | - | - | - |
| 1778077876 | 16.67° C | 91% | 1009.9 hPa | 0.25 mm | - | - | - |
| 1778072475 | 18.89° C | 77% | 1009.8 hPa | 0 mm | - | - | - |
| 1778069774 | 18.89° C | 77% | 1010 hPa | 0 mm | - | - | - |
| 1778068874 | 18.89° C | 77% | 1010 hPa | 0 mm | - | - | - |
| 1778067974 | 18.89° C | 77% | 1009.8 hPa | 0 mm | - | - | - |
| 1778065273 | 18.33° C | 79% | 1009.3 hPa | 0 mm | - | - | - |
| 1778064373 | 18.33° C | 79% | 1009.3 hPa | 0 mm | - | - | - |
| 1778063473 | 18.33° C | 80% | 1009.3 hPa | 0 mm | - | - | - |
| 1778060772 | 18.33° C | 79% | 1009.3 hPa | 0 mm | - | - | - |
| 1778059872 | 18.33° C | 79% | 1009.4 hPa | 0 mm | - | - | - |
| 1778057171 | 18.89° C | 77% | 1009.4 hPa | 0 mm | - | - | - |
| 1778056271 | 18.89° C | 76% | 1009.5 hPa | 0 mm | - | - | - |
| 1778053570 | 19.44° C | 74% | 1009.5 hPa | 0 mm | - | - | - |
| 1778052670 | 19.44° C | 74% | 1009.6 hPa | 0 mm | - | - | - |
| 1778051770 | 20° C | 73% | 1009.7 hPa | 0 mm | - | - | - |
| 1778048169 | 20.56° C | 69% | 1009.8 hPa | 0 mm | - | - | - |
| 1778046369 | 21.11° C | 66% | 1010 hPa | 0 mm | - | - | - |
| 1778044568 | 21.67° C | 64% | 1010.2 hPa | 0 mm | - | - | - |
| 1778043668 | 21.67° C | 63% | 1010.4 hPa | 0 mm | - | - | - |
| 1778042768 | 21.67° C | 61% | 1010.4 hPa | 0 mm | - | - | - |
| 1778041868 | 22.22° C | 60% | 1010.4 hPa | 0 mm | - | - | - |
| 1778039167 | 22.22° C | 57% | 1010.4 hPa | 0 mm | - | - | - |
| 1778038267 | 22.78° C | 56% | 1010.4 hPa | 0 mm | - | - | - |
* Rain latest hour (hover to see other rain measurements)
** Current wind speed in m/s (hover to see current wind gust speed)